createdAt,value
2022-10-12T00:01:20.749Z,0
2022-10-12T00:06:44.271Z,0
2022-10-12T00:12:07.031Z,0
2022-10-12T00:17:35.546Z,0
2022-10-12T00:22:59.590Z,0
2022-10-12T00:28:22.003Z,0
2022-10-12T00:33:44.830Z,0
2022-10-12T00:39:07.379Z,0
2022-10-12T00:44:29.782Z,0
2022-10-12T00:55:22.785Z,0
2022-10-12T01:00:45.970Z,0
2022-10-12T01:06:14.415Z,0
2022-10-12T01:11:37.289Z,0
2022-10-12T01:16:59.666Z,0
2022-10-12T01:22:24.962Z,0
2022-10-12T01:27:47.617Z,0
2022-10-12T01:33:09.901Z,0
2022-10-12T01:38:38.073Z,0
2022-10-12T01:44:00.627Z,0
2022-10-12T01:49:25.735Z,0
2022-10-12T01:54:56.112Z,0
2022-10-12T02:00:20.046Z,0
2022-10-12T02:05:42.398Z,0
2022-10-12T02:11:04.742Z,0
2022-10-12T02:17:30.176Z,0
2022-10-12T02:22:52.462Z,0
2022-10-12T02:28:17.984Z,0
2022-10-12T02:33:40.977Z,0
2022-10-12T02:39:03.863Z,0
2022-10-12T02:44:26.346Z,0
2022-10-12T02:50:07.146Z,0
2022-10-12T02:55:32.513Z,0
2022-10-12T03:00:55.160Z,0
2022-10-12T03:07:03.807Z,0
2022-10-12T03:12:26.382Z,0
2022-10-12T03:17:48.684Z,0
2022-10-12T03:23:11.291Z,0
2022-10-12T03:28:33.840Z,0
2022-10-12T03:33:59.601Z,0
2022-10-12T03:39:22.042Z,0
2022-10-12T03:50:13.345Z,0
2022-10-12T03:56:01.397Z,0
2022-10-12T04:01:26.849Z,0
2022-10-12T04:06:49.290Z,0
2022-10-12T04:12:11.669Z,0
2022-10-12T04:17:42.141Z,0
2022-10-12T04:23:04.787Z,0
2022-10-12T04:28:27.287Z,0
2022-10-12T04:33:52.094Z,0
2022-10-12T04:39:22.471Z,0
2022-10-12T04:44:44.829Z,0
2022-10-12T04:50:07.464Z,0
2022-10-12T04:55:32.893Z,0
2022-10-12T05:00:54.909Z,0
2022-10-12T05:06:18.005Z,0
2022-10-12T05:17:13.128Z,0
2022-10-12T05:22:53.414Z,0
2022-10-12T05:28:15.655Z,0
2022-10-12T05:34:03.598Z,0
2022-10-12T05:39:25.826Z,0
2022-10-12T05:44:48.290Z,0
2022-10-12T05:50:29.540Z,0.1
2022-10-12T05:55:51.837Z,0.1
2022-10-12T06:01:14.336Z,0.1
2022-10-12T06:06:45.406Z,0.1
2022-10-12T06:12:08.209Z,0.1
2022-10-12T06:17:33.195Z,0.1
2022-10-12T06:22:55.891Z,0.1
2022-10-12T06:28:26.665Z,0.2
2022-10-12T06:33:49.383Z,0.3
2022-10-12T06:39:12.003Z,0.2
2022-10-12T06:44:34.790Z,0.2
2022-10-12T06:50:47.525Z,0.3
2022-10-12T06:56:09.837Z,0.3
2022-10-12T07:01:32.527Z,0.4
2022-10-12T07:06:55.684Z,0.4
2022-10-12T07:12:18.306Z,0.5
2022-10-12T07:17:50.045Z,0.7
2022-10-12T07:23:22.561Z,1
2022-10-12T07:28:45.120Z,4.4
2022-10-12T07:39:31.249Z,0.9
2022-10-12T07:44:57.006Z,1.6
2022-10-12T07:50:19.528Z,0.8
2022-10-12T07:55:44.812Z,1.2
2022-10-12T08:01:07.418Z,1.3
2022-10-12T08:06:36.595Z,2
2022-10-12T08:12:09.338Z,0.9
2022-10-12T08:17:31.474Z,2.5
2022-10-12T08:23:04.501Z,3
2022-10-12T08:28:28.251Z,4.3
2022-10-12T08:33:51.943Z,3.8
2022-10-12T08:39:17.855Z,1.1
2022-10-12T08:44:40.267Z,1.7
2022-10-12T08:50:03.627Z,1.9
2022-10-12T08:55:27.399Z,3.2
2022-10-12T09:00:51.216Z,4
2022-10-12T09:06:13.955Z,3.9
2022-10-12T09:11:39.943Z,3.9
2022-10-12T09:17:02.438Z,4.6
2022-10-12T09:27:47.593Z,3.6
2022-10-12T09:33:10.638Z,4.8
2022-10-12T09:38:33.492Z,4.2
2022-10-12T09:43:56.507Z,3.5
2022-10-12T09:49:18.530Z,3.7
2022-10-12T09:54:41.362Z,2.6
2022-10-12T10:00:06.520Z,2.2
2022-10-12T10:05:33.266Z,5.5
2022-10-12T10:10:56.569Z,4.7
2022-10-12T10:16:19.861Z,5.4
2022-10-12T10:21:42.586Z,4.4
2022-10-12T10:27:05.191Z,5.8
2022-10-12T10:32:33.705Z,3.3
2022-10-12T10:37:55.741Z,4.9
2022-10-12T10:43:19.309Z,4
2022-10-12T10:48:41.526Z,4.6
2022-10-12T10:54:22.068Z,2.7
2022-10-12T10:59:44.016Z,4.9
2022-10-12T11:05:06.828Z,2.9
2022-10-12T11:10:29.105Z,2.6
2022-10-12T11:15:52.083Z,2.7
2022-10-12T11:21:14.239Z,2.5
2022-10-12T11:26:36.673Z,2.7
2022-10-12T11:32:06.350Z,3.9
2022-10-12T11:37:29.231Z,5.6
2022-10-12T11:42:52.383Z,5.8
2022-10-12T11:48:15.193Z,1.8
2022-10-12T11:53:38.704Z,4.2
2022-10-12T11:59:03.543Z,3.8
2022-10-12T12:04:47.088Z,2.3
2022-10-12T12:10:19.852Z,5.3
2022-10-12T12:16:01.560Z,5.9
2022-10-12T12:21:24.892Z,6.3
2022-10-12T12:26:53.172Z,3.1
2022-10-12T12:32:14.142Z,2.4
2022-10-12T12:37:36.844Z,2.7
2022-10-12T12:43:20.558Z,5.3
2022-10-12T12:48:43.696Z,2.6
2022-10-12T12:59:30.846Z,4.8
2022-10-12T13:04:56.898Z,4.7
2022-10-12T13:10:19.703Z,3.4
2022-10-12T13:15:58.339Z,1.8
2022-10-12T13:21:19.853Z,1.2
2022-10-12T13:26:49.558Z,1.7
2022-10-12T13:32:11.960Z,2.4
2022-10-12T13:42:46.526Z,3.6
2022-10-12T13:48:09.170Z,2.3
2022-10-12T13:53:31.552Z,2.8
2022-10-12T13:58:53.840Z,3.2
2022-10-12T14:04:19.297Z,2.1
2022-10-12T14:09:41.720Z,2.5
2022-10-12T14:20:50.678Z,3.2
2022-10-12T14:26:13.864Z,1.5
2022-10-12T14:31:35.782Z,1
2022-10-12T14:36:57.199Z,0.6
2022-10-12T14:42:18.898Z,0.5
2022-10-12T14:48:02.400Z,0.5
2022-10-12T14:53:24.906Z,0.4
2022-10-12T14:58:48.656Z,0.4
2022-10-12T15:04:11.019Z,0.3
2022-10-12T15:09:36.629Z,0.3
2022-10-12T15:15:07.935Z,0.2
2022-10-12T15:20:30.104Z,0.2
2022-10-12T15:26:16.938Z,0.2
2022-10-12T15:31:39.082Z,0.2
2022-10-12T15:37:04.213Z,0.3
2022-10-12T15:42:31.996Z,0.4
2022-10-12T15:47:54.677Z,0.4
2022-10-12T15:53:17.054Z,0.4
2022-10-12T15:58:45.064Z,0.3
2022-10-12T16:04:07.417Z,0.3
2022-10-12T16:09:29.927Z,0.2
2022-10-12T16:14:55.320Z,0.1
2022-10-12T16:20:17.821Z,0.1
2022-10-12T16:25:41.468Z,0.1
2022-10-12T16:31:09.717Z,0.1
2022-10-12T16:36:41.464Z,0.1
2022-10-12T16:42:04.087Z,0.1
2022-10-12T16:47:28.190Z,0
2022-10-12T16:52:53.752Z,0
2022-10-12T16:58:16.041Z,0
2022-10-12T17:03:41.523Z,0
2022-10-12T17:09:06.384Z,0
2022-10-12T17:14:34.558Z,0
2022-10-12T17:19:57.093Z,0
2022-10-12T17:25:20.073Z,0
2022-10-12T17:30:45.132Z,0
2022-10-12T17:36:15.813Z,0
2022-10-12T17:41:38.557Z,0
2022-10-12T17:47:00.993Z,0
2022-10-12T17:52:30.973Z,0
2022-10-12T17:57:53.779Z,0
2022-10-12T18:03:16.610Z,0
2022-10-12T18:08:39.113Z,0
2022-10-12T18:19:24.380Z,0
2022-10-12T18:24:46.830Z,0
2022-10-12T18:30:09.308Z,0
2022-10-12T18:35:31.603Z,0
2022-10-12T18:40:54.003Z,0
2022-10-12T18:46:16.575Z,0
2022-10-12T18:51:39.054Z,0
2022-10-12T18:57:01.616Z,0
2022-10-12T19:02:23.773Z,0
2022-10-12T19:07:49.121Z,0
2022-10-12T19:13:11.448Z,0
2022-10-12T19:18:33.815Z,0
2022-10-12T19:23:56.070Z,0
2022-10-12T19:29:18.729Z,0
2022-10-12T19:34:52.863Z,0
2022-10-12T19:40:15.233Z,0
2022-10-12T19:45:45.495Z,0
2022-10-12T19:56:30.717Z,0
2022-10-12T20:01:52.962Z,0
2022-10-12T20:07:27.376Z,0
2022-10-12T20:12:49.901Z,0
2022-10-12T20:18:14.845Z,0
2022-10-12T20:23:37.747Z,0
2022-10-12T20:29:00.496Z,0
2022-10-12T20:34:23.117Z,0
2022-10-12T20:39:45.770Z,0
2022-10-12T20:45:08.361Z,0
2022-10-12T20:50:37.048Z,0
2022-10-12T20:55:59.517Z,0
2022-10-12T21:01:22.125Z,0
2022-10-12T21:06:44.853Z,0
2022-10-12T21:12:07.181Z,0
2022-10-12T21:17:29.572Z,0
2022-10-12T21:22:52.036Z,0
2022-10-12T21:28:23.560Z,0
2022-10-12T21:33:46.378Z,0
2022-10-12T21:39:20.678Z,0
2022-10-12T21:50:05.743Z,0
2022-10-12T21:55:31.186Z,0
2022-10-12T22:00:53.801Z,0
2022-10-12T22:06:22.440Z,0
2022-10-12T22:11:44.915Z,0
2022-10-12T22:17:14.361Z,0
2022-10-12T22:22:40.007Z,0
2022-10-12T22:28:05.692Z,0
2022-10-12T22:33:28.380Z,0
2022-10-12T22:38:50.879Z,0
2022-10-12T22:44:13.597Z,0
2022-10-12T22:49:37.078Z,0
2022-10-12T22:54:59.554Z,0
2022-10-12T23:00:34.477Z,0
2022-10-12T23:05:57.291Z,0
2022-10-12T23:11:19.989Z,0
2022-10-12T23:16:42.627Z,0
2022-10-12T23:22:05.089Z,0
2022-10-12T23:27:54.888Z,0
2022-10-12T23:33:17.476Z,0
2022-10-12T23:39:03.013Z,0
2022-10-12T23:44:25.393Z,0
2022-10-12T23:50:11.944Z,0
2022-10-12T23:55:34.528Z,0
